Time;durP1;ratioP1;P1;durP2;ratioP2;P2;SDS_P1;SDS_P2;PMS_P1;PMS_P2;Temp;Humidity;BMP_temperature;BMP_pressure;BME280_temperature;BME280_humidity;BME280_pressure;Samples;Min_cycle;Max_cycle;Signal;HPM_P1;HPM_P2
2022/05/07 00:02:07;;;;;;;54.03;38.88;;;12.80;99.90;;;;;;5052840;28;20041;-48
2022/05/07 00:04:34;;;;;;;52.85;39.03;;;12.80;99.90;;;;;;5052556;28;20033;-47
2022/05/07 00:07:00;;;;;;;54.30;37.70;;;12.90;99.90;;;;;;5052602;28;20029;-48
2022/05/07 00:09:25;;;;;;;57.03;40.13;;;12.90;99.90;;;;;;5052411;28;20688;-53
2022/05/07 00:11:51;;;;;;;57.85;38.90;;;12.90;99.90;;;;;;5068029;28;20176;-48
2022/05/07 00:14:17;;;;;;;57.70;39.45;;;12.90;99.90;;;;;;5072341;28;20040;-49
2022/05/07 00:19:27;;;;;;;58.50;38.63;;;13.00;99.90;;;;;;5072546;28;20055;-47
2022/05/07 00:21:52;;;;;;;52.35;37.92;;;12.90;99.90;;;;;;5071065;28;20036;-46
2022/05/07 00:24:18;;;;;;;56.35;39.22;;;12.90;99.90;;;;;;5072027;28;20141;-48
2022/05/07 00:26:44;;;;;;;58.45;39.75;;;13.10;99.90;;;;;;5072276;28;20048;-61
2022/05/07 00:29:10;;;;;;;63.88;41.75;;;13.00;99.90;;;;;;5071946;28;20048;-48
2022/05/07 00:31:36;;;;;;;59.95;41.38;;;13.00;99.90;;;;;;5072017;28;20047;-62
2022/05/07 00:34:02;;;;;;;56.30;40.47;;;13.10;99.90;;;;;;5072172;28;20131;-61
2022/05/07 00:36:27;;;;;;;57.38;40.10;;;13.00;99.90;;;;;;5054325;28;20040;-61
2022/05/07 00:38:53;;;;;;;60.13;41.70;;;13.10;99.90;;;;;;5070922;28;20086;-61
2022/05/07 00:41:19;;;;;;;57.90;41.08;;;13.00;99.90;;;;;;5072016;28;20047;-62
2022/05/07 00:43:44;;;;;;;56.20;40.13;;;13.10;99.90;;;;;;5071873;28;20120;-60
2022/05/07 00:46:12;;;;;;;54.40;38.13;;;13.00;99.90;;;;;;5072228;28;20086;-59
2022/05/07 00:48:37;;;;;;;56.83;39.30;;;13.20;99.90;;;;;;5072187;28;20040;-62
2022/05/07 00:53:49;;;;;;;57.28;38.72;;;13.10;99.90;;;;;;5071933;28;20328;-60
2022/05/07 00:56:15;;;;;;;52.55;37.42;;;13.10;99.90;;;;;;5071880;28;20041;-60
2022/05/07 00:58:41;;;;;;;56.67;40.60;;;13.10;99.90;;;;;;5072128;28;20102;-62
2022/05/07 01:01:07;;;;;;;56.22;39.22;;;13.10;99.90;;;;;;5060547;28;20049;-61
2022/05/07 01:03:32;;;;;;;57.90;40.33;;;13.00;99.90;;;;;;5051749;28;20485;-61
2022/05/07 01:05:59;;;;;;;60.22;43.22;;;12.80;99.90;;;;;;5051784;28;20084;-47
2022/05/07 01:08:25;;;;;;;63.97;43.67;;;12.90;99.90;;;;;;5051883;28;20076;-61
2022/05/07 01:10:52;;;;;;;59.00;41.72;;;12.90;99.90;;;;;;5059035;28;20540;-58
2022/05/07 01:13:18;;;;;;;61.50;42.47;;;12.90;99.90;;;;;;5072062;28;20043;-47
2022/05/07 01:15:45;;;;;;;59.35;41.05;;;12.90;99.90;;;;;;5071919;28;20080;-49
2022/05/07 01:18:12;;;;;;;63.78;39.65;;;12.90;99.90;;;;;;5071709;28;20158;-46
2022/05/07 01:20:38;;;;;;;64.28;44.95;;;13.00;99.90;;;;;;5071666;28;20497;-61
2022/05/07 01:23:04;;;;;;;59.25;40.25;;;13.00;99.90;;;;;;5071531;28;20106;-61
2022/05/07 01:25:30;;;;;;;55.13;39.42;;;13.00;99.90;;;;;;5071486;28;20052;-61
2022/05/07 01:27:56;;;;;;;62.28;42.35;;;13.00;99.90;;;;;;5071849;28;20071;-61
2022/05/07 01:30:23;;;;;;;60.97;41.50;;;13.00;99.90;;;;;;5071555;28;20450;-62
2022/05/07 01:32:49;;;;;;;61.80;41.63;;;13.00;99.90;;;;;;5071713;28;20647;-62
2022/05/07 01:35:15;;;;;;;54.38;39.75;;;12.90;99.90;;;;;;5071593;28;20487;-61
2022/05/07 01:37:42;;;;;;;56.33;40.22;;;13.00;99.90;;;;;;5071555;28;20085;-47
2022/05/07 01:40:08;;;;;;;60.05;40.45;;;12.90;99.90;;;;;;5071484;28;20477;-61
2022/05/07 01:42:34;;;;;;;55.50;41.42;;;13.00;99.90;;;;;;5073450;28;20037;-46
2022/05/07 01:45:01;;;;;;;59.45;41.45;;;12.90;99.90;;;;;;5075337;28;20043;-62
2022/05/07 01:50:11;;;;;;;55.90;39.75;;;13.00;99.90;;;;;;5074967;28;20143;-61
2022/05/07 01:52:36;;;;;;;59.13;40.45;;;13.00;99.90;;;;;;5074938;28;20075;-61
2022/05/07 01:55:03;;;;;;;59.70;39.30;;;13.00;99.90;;;;;;5075064;28;20075;-62
2022/05/07 01:57:29;;;;;;;60.00;41.22;;;13.00;99.90;;;;;;5074800;28;20492;-62
2022/05/07 01:59:54;;;;;;;57.28;38.92;;;13.10;99.90;;;;;;5073523;28;20036;-61
2022/05/07 02:02:20;;;;;;;59.35;39.55;;;13.00;99.90;;;;;;5054777;28;20393;-61
2022/05/07 02:04:46;;;;;;;56.85;37.45;;;13.00;99.90;;;;;;5054749;28;20118;-61
2022/05/07 02:07:11;;;;;;;58.72;37.58;;;13.00;99.90;;;;;;5054676;28;20103;-61
2022/05/07 02:09:37;;;;;;;55.88;38.10;;;12.90;99.90;;;;;;5054867;28;20037;-62
2022/05/07 02:12:04;;;;;;;56.08;36.80;;;12.90;99.90;;;;;;5072074;28;20040;-61
2022/05/07 02:14:29;;;;;;;55.63;37.90;;;13.00;99.90;;;;;;5073377;28;20123;-62
2022/05/07 02:16:55;;;;;;;56.80;38.05;;;13.00;99.90;;;;;;5074685;28;20136;-47
2022/05/07 02:19:21;;;;;;;54.67;39.72;;;13.10;99.90;;;;;;5074527;28;20040;-61
2022/05/07 02:21:47;;;;;;;50.72;35.42;;;12.90;99.90;;;;;;5074361;28;20040;-47
2022/05/07 02:24:13;;;;;;;53.13;37.03;;;12.90;99.90;;;;;;5074305;28;20102;-61
2022/05/07 02:26:38;;;;;;;59.63;37.88;;;13.00;99.90;;;;;;5074445;28;20052;-46
2022/05/07 02:29:04;;;;;;;53.40;36.33;;;12.90;99.90;;;;;;5074249;28;20036;-50
2022/05/07 02:31:30;;;;;;;52.22;36.53;;;12.80;99.90;;;;;;5074351;28;20045;-47
2022/05/07 02:33:56;;;;;;;56.17;37.35;;;12.90;99.90;;;;;;5074325;28;20037;-61
2022/05/07 02:36:21;;;;;;;55.67;37.83;;;12.90;99.90;;;;;;5074266;28;20105;-47
2022/05/07 02:38:47;;;;;;;58.50;39.08;;;12.80;99.90;;;;;;5074134;28;20040;-61
2022/05/07 02:43:57;;;;;;;52.40;34.85;;;12.90;99.90;;;;;;5074087;28;20052;-48
2022/05/07 02:46:23;;;;;;;54.85;36.67;;;12.80;99.90;;;;;;5073910;28;20476;-48
2022/05/07 02:48:49;;;;;;;53.30;37.42;;;12.80;99.90;;;;;;5073942;28;20044;-46
2022/05/07 02:51:14;;;;;;;52.65;35.75;;;12.90;99.90;;;;;;5073933;28;20046;-46
2022/05/07 02:53:40;;;;;;;51.05;36.35;;;12.70;99.90;;;;;;5073570;28;20076;-48
2022/05/07 02:56:06;;;;;;;50.65;36.42;;;12.90;99.90;;;;;;5073983;28;20553;-46
2022/05/07 02:58:32;;;;;;;52.05;36.72;;;12.80;99.90;;;;;;5073921;28;20036;-61
2022/05/07 03:00:58;;;;;;;50.92;35.50;;;12.90;99.90;;;;;;5063283;28;20045;-61
2022/05/07 03:03:25;;;;;;;52.53;36.78;;;12.90;99.90;;;;;;5053474;28;20113;-61
2022/05/07 03:05:52;;;;;;;50.25;34.40;;;12.80;99.90;;;;;;5053828;28;20040;-61
2022/05/07 03:08:17;;;;;;;54.80;35.45;;;12.80;99.90;;;;;;5053763;28;20037;-47
2022/05/07 03:10:43;;;;;;;50.25;34.60;;;12.80;99.90;;;;;;5059919;28;20474;-47
2022/05/07 03:13:09;;;;;;;48.35;33.03;;;12.80;99.90;;;;;;5072256;28;20055;-46
2022/05/07 03:15:35;;;;;;;49.10;33.72;;;12.80;99.90;;;;;;5073418;28;20051;-61
2022/05/07 03:18:00;;;;;;;52.30;36.10;;;12.80;99.90;;;;;;5073304;28;20496;-47
2022/05/07 03:20:26;;;;;;;53.80;36.13;;;12.70;99.90;;;;;;5073462;28;20503;-61
2022/05/07 03:22:51;;;;;;;50.08;34.60;;;12.70;99.90;;;;;;5073235;28;20127;-49
2022/05/07 03:25:17;;;;;;;51.50;34.35;;;12.70;99.90;;;;;;5073311;28;20084;-47
2022/05/07 03:27:43;;;;;;;50.78;33.70;;;12.70;99.90;;;;;;5073173;28;20549;-48
2022/05/07 03:30:09;;;;;;;49.97;34.80;;;12.60;99.90;;;;;;5073183;28;20407;-47
2022/05/07 03:32:35;;;;;;;51.17;35.03;;;12.70;99.90;;;;;;5073159;28;20036;-47
2022/05/07 03:35:01;;;;;;;49.70;34.13;;;12.60;99.90;;;;;;5073096;28;20044;-46
2022/05/07 03:37:27;;;;;;;45.60;33.63;;;12.50;99.90;;;;;;5073187;28;20033;-62
2022/05/07 03:39:54;;;;;;;49.70;35.70;;;12.50;99.90;;;;;;5073098;28;20040;-47
2022/05/07 03:42:20;;;;;;;49.60;34.38;;;12.60;99.90;;;;;;5072906;28;20082;-46
2022/05/07 03:44:48;;;;;;;48.95;34.58;;;12.60;99.90;;;;;;5072842;28;20076;-48
2022/05/07 03:47:14;;;;;;;50.08;33.08;;;12.50;99.90;;;;;;5072819;28;20040;-62
2022/05/07 03:49:40;;;;;;;49.63;35.72;;;12.60;99.90;;;;;;5072895;28;20033;-46
2022/05/07 03:54:50;;;;;;;44.92;32.53;;;12.60;99.90;;;;;;5072657;28;20400;-61
2022/05/07 03:57:16;;;;;;;46.13;31.85;;;12.50;99.90;;;;;;5072656;28;20032;-49
2022/05/07 03:59:43;;;;;;;46.58;33.72;;;12.70;99.90;;;;;;5072963;28;20055;-62
2022/05/07 04:02:09;;;;;;;46.45;33.60;;;12.70;99.90;;;;;;5052581;28;20040;-61
2022/05/07 04:04:35;;;;;;;43.33;31.38;;;12.70;99.90;;;;;;5052046;28;20094;-61
2022/05/07 04:07:01;;;;;;;41.95;31.33;;;12.60;99.90;;;;;;5052554;28;20492;-61
2022/05/07 04:09:27;;;;;;;45.22;33.38;;;12.60;99.90;;;;;;5052455;28;20496;-61
2022/05/07 04:11:53;;;;;;;44.40;34.55;;;12.50;99.90;;;;;;5068231;28;20044;-46
2022/05/07 04:14:18;;;;;;;44.45;33.78;;;12.50;99.90;;;;;;5072416;28;20051;-46
2022/05/07 04:16:45;;;;;;;45.08;31.77;;;12.50;99.90;;;;;;5072650;28;20040;-47
2022/05/07 04:19:12;;;;;;;44.50;31.85;;;12.40;99.90;;;;;;5072358;28;20073;-61
2022/05/07 04:21:39;;;;;;;46.70;32.83;;;12.50;99.90;;;;;;5071123;28;20043;-47
2022/05/07 04:24:05;;;;;;;50.47;35.25;;;12.40;99.90;;;;;;5072083;28;20059;-48
2022/05/07 04:26:32;;;;;;;51.75;34.38;;;12.50;99.90;;;;;;5072151;28;20083;-61
2022/05/07 04:28:58;;;;;;;48.22;35.17;;;12.50;99.90;;;;;;5072214;28;20068;-46
2022/05/07 04:31:24;;;;;;;46.63;33.55;;;12.60;99.90;;;;;;5072438;28;20037;-46
2022/05/07 04:33:51;;;;;;;48.75;35.47;;;12.50;99.90;;;;;;5072243;28;20044;-47
2022/05/07 04:36:16;;;;;;;49.00;35.63;;;12.60;99.90;;;;;;5072144;28;20381;-46
2022/05/07 04:38:42;;;;;;;47.90;34.25;;;12.60;99.90;;;;;;5072118;28;20089;-46
2022/05/07 04:41:07;;;;;;;50.05;34.97;;;12.70;99.90;;;;;;5072175;28;20093;-61
2022/05/07 04:43:33;;;;;;;50.33;35.05;;;12.70;99.90;;;;;;5072178;28;20045;-62
2022/05/07 04:45:59;;;;;;;48.15;34.10;;;12.70;99.90;;;;;;5072228;28;20040;-61
2022/05/07 04:48:24;;;;;;;48.72;33.90;;;12.70;99.90;;;;;;5072235;28;20546;-49
2022/05/07 04:50:50;;;;;;;47.50;34.25;;;12.70;99.90;;;;;;5072141;28;20427;-61
2022/05/07 04:53:16;;;;;;;46.42;32.92;;;12.80;99.90;;;;;;5071991;28;20040;-46
2022/05/07 04:55:41;;;;;;;45.80;34.92;;;12.80;99.90;;;;;;5071917;28;20381;-62
2022/05/07 04:58:07;;;;;;;48.10;35.00;;;12.70;99.90;;;;;;5072214;28;20487;-61
2022/05/07 05:00:33;;;;;;;48.67;35.53;;;12.80;99.90;;;;;;5065251;28;20381;-61
2022/05/07 05:02:58;;;;;;;47.25;34.05;;;12.80;99.90;;;;;;5051961;28;20110;-61
2022/05/07 05:05:27;;;;;;;46.35;34.22;;;12.80;99.90;;;;;;5051922;28;20140;-61
2022/05/07 05:07:52;;;;;;;48.90;36.30;;;12.90;99.90;;;;;;5051969;28;20045;-61
2022/05/07 05:10:19;;;;;;;49.15;36.72;;;12.90;99.90;;;;;;5054603;28;20246;-61
2022/05/07 05:12:45;;;;;;;47.83;36.10;;;12.80;99.90;;;;;;5071932;28;20045;-47
2022/05/07 05:15:11;;;;;;;47.10;34.58;;;12.80;99.90;;;;;;5072023;28;20037;-47
2022/05/07 05:17:37;;;;;;;49.40;36.28;;;12.80;99.90;;;;;;5075513;28;20102;-46
2022/05/07 05:20:05;;;;;;;50.92;38.03;;;12.80;99.90;;;;;;5075512;28;20049;-51
2022/05/07 05:22:31;;;;;;;48.70;35.65;;;12.90;99.90;;;;;;5075424;28;20029;-64
2022/05/07 05:24:57;;;;;;;45.95;33.33;;;13.00;99.90;;;;;;5074843;28;20622;-48
2022/05/07 05:27:23;;;;;;;44.40;33.72;;;12.90;99.90;;;;;;5075194;28;20091;-49
2022/05/07 05:29:49;;;;;;;44.63;34.15;;;12.90;99.90;;;;;;5075301;28;20115;-61
2022/05/07 05:32:18;;;;;;;44.47;33.65;;;12.90;99.90;;;;;;5075553;28;20443;-46
2022/05/07 05:34:53;;;;;;;43.80;33.30;;;13.00;99.90;;;;;;5074967;28;20083;-62
2022/05/07 05:37:19;;;;;;;47.33;36.40;;;13.00;99.90;;;;;;5074417;28;20049;-48
2022/05/07 05:39:45;;;;;;;44.88;35.88;;;13.00;99.90;;;;;;5074397;28;20102;-61
2022/05/07 05:42:12;;;;;;;45.63;34.75;;;13.00;99.90;;;;;;5074470;28;20119;-61
2022/05/07 05:44:38;;;;;;;50.78;34.97;;;13.10;99.90;;;;;;5073069;28;20045;-62
2022/05/07 05:47:05;;;;;;;44.90;34.45;;;13.20;99.90;;;;;;5074558;28;20039;-61
2022/05/07 05:49:31;;;;;;;45.38;34.67;;;13.20;99.90;;;;;;5074353;28;20040;-61
2022/05/07 05:51:57;;;;;;;46.03;34.42;;;13.40;99.90;;;;;;5074443;28;20119;-61
2022/05/07 05:54:24;;;;;;;48.45;35.47;;;13.40;99.90;;;;;;5074063;28;20037;-47
2022/05/07 05:56:51;;;;;;;50.47;36.55;;;13.50;99.90;;;;;;5074197;28;20036;-48
2022/05/07 05:59:17;;;;;;;47.33;34.60;;;13.60;99.90;;;;;;5074121;28;20122;-47
2022/05/07 06:01:42;;;;;;;45.47;34.42;;;13.70;99.90;;;;;;5057452;28;20118;-62
2022/05/07 06:04:08;;;;;;;43.75;34.08;;;13.80;99.90;;;;;;5052655;28;20128;-61
2022/05/07 06:06:33;;;;;;;43.67;32.63;;;13.80;99.90;;;;;;5053731;28;20052;-61
2022/05/07 06:08:59;;;;;;;40.88;32.13;;;13.80;99.90;;;;;;5053940;28;20049;-62
2022/05/07 06:11:25;;;;;;;47.03;34.50;;;13.90;99.90;;;;;;5066037;28;20048;-61
2022/05/07 06:13:50;;;;;;;42.63;33.63;;;14.00;99.90;;;;;;5074019;28;20040;-46
2022/05/07 06:16:17;;;;;;;43.92;32.67;;;14.00;99.90;;;;;;5073886;28;20603;-47
2022/05/07 06:18:43;;;;;;;39.88;32.45;;;14.10;99.90;;;;;;5073724;28;20048;-46
2022/05/07 06:21:08;;;;;;;42.42;33.00;;;14.20;99.90;;;;;;5072391;28;20036;-47
2022/05/07 06:23:34;;;;;;;39.40;31.15;;;14.20;99.90;;;;;;5072062;28;20048;-61
2022/05/07 06:28:44;;;;;;;41.60;32.63;;;14.20;99.90;;;;;;5072914;28;20063;-47
2022/05/07 06:31:10;;;;;;;39.70;32.60;;;14.20;99.90;;;;;;5073378;28;20033;-48
2022/05/07 06:33:38;;;;;;;42.08;32.05;;;14.40;99.90;;;;;;5073298;28;20120;-61
2022/05/07 06:36:06;;;;;;;44.40;34.90;;;14.50;99.90;;;;;;5073461;28;20040;-46
2022/05/07 06:38:33;;;;;;;40.05;32.22;;;14.60;99.90;;;;;;5073604;28;20048;-47
2022/05/07 06:41:02;;;;;;;42.47;31.90;;;14.70;99.90;;;;;;5073396;28;20044;-48
2022/05/07 06:43:29;;;;;;;39.47;30.60;;;14.70;99.90;;;;;;5073318;28;20056;-46
2022/05/07 06:45:55;;;;;;;40.10;31.90;;;14.80;99.90;;;;;;5071948;28;20051;-47
2022/05/07 06:48:20;;;;;;;40.67;29.80;;;14.80;99.90;;;;;;5066698;28;20036;-49
2022/05/07 06:50:46;;;;;;;39.33;31.30;;;14.90;99.90;;;;;;5073112;28;20040;-62
2022/05/07 06:53:11;;;;;;;37.72;28.40;;;14.90;99.90;;;;;;5073123;28;20416;-61
2022/05/07 06:55:54;;;;;;;39.65;29.63;;;14.70;99.90;;;;;;5072919;28;20449;-62
2022/05/07 06:58:31;;;;;;;41.13;30.15;;;14.60;99.90;;;;;;5072766;28;20040;-49
2022/05/07 07:00:58;;;;;;;42.63;31.13;;;14.70;99.90;;;;;;5062622;28;20401;-49
2022/05/07 07:03:25;;;;;;;40.33;30.90;;;14.90;99.90;;;;;;5052681;28;20464;-51
2022/05/07 07:05:53;;;;;;;44.67;31.65;;;15.00;99.90;;;;;;5058330;28;20068;-58
2022/05/07 07:08:19;;;;;;;44.33;33.20;;;15.10;99.90;;;;;;5059182;28;20033;-60
2022/05/07 07:10:45;;;;;;;48.10;34.15;;;15.10;99.90;;;;;;5068148;28;20142;-50
2022/05/07 07:13:11;;;;;;;45.85;34.83;;;15.10;99.90;;;;;;5072312;28;20044;-50
2022/05/07 07:15:39;;;;;;;47.47;34.08;;;15.20;99.90;;;;;;5072418;28;20050;-50
2022/05/07 07:18:09;;;;;;;49.10;34.58;;;15.30;99.90;;;;;;5072533;28;20455;-50
2022/05/07 07:20:39;;;;;;;50.15;38.60;;;15.30;99.90;;;;;;5071202;28;20120;-49
2022/05/07 07:23:05;;;;;;;54.00;38.20;;;15.40;99.90;;;;;;5072429;28;20753;-48
2022/05/07 07:25:32;;;;;;;58.58;41.13;;;15.40;99.90;;;;;;5072340;28;20052;-49
2022/05/07 07:27:57;;;;;;;60.45;40.35;;;15.60;99.90;;;;;;5071107;28;20044;-49
2022/05/07 07:30:23;;;;;;;61.70;42.85;;;15.50;99.90;;;;;;5072582;28;20040;-48
2022/05/07 07:32:49;;;;;;;64.38;44.10;;;15.50;99.90;;;;;;5072175;28;20056;-51
2022/05/07 07:35:14;;;;;;;64.35;43.42;;;15.50;99.90;;;;;;5071932;28;20098;-49
2022/05/07 07:37:40;;;;;;;62.05;44.13;;;15.40;99.90;;;;;;5071875;28;20044;-53
2022/05/07 07:40:06;;;;;;;67.65;46.88;;;15.40;99.90;;;;;;5071014;28;20085;-53
2022/05/07 07:42:32;;;;;;;63.38;44.33;;;15.30;99.90;;;;;;5071842;28;20052;-50
2022/05/07 07:47:56;;;;;;;64.45;44.25;;;15.40;99.90;;;;;;5070848;28;20162;-48
2022/05/07 07:50:29;;;;;;;61.47;43.15;;;15.30;99.90;;;;;;5069726;28;20089;-48
2022/05/07 07:52:55;;;;;;;66.78;44.40;;;15.20;99.90;;;;;;5071785;28;20621;-49
2022/05/07 07:55:22;;;;;;;65.03;44.10;;;15.20;99.90;;;;;;5071897;28;20036;-48
2022/05/07 07:57:49;;;;;;;65.13;44.28;;;15.10;99.90;;;;;;5071799;28;20496;-49
2022/05/07 08:00:16;;;;;;;67.78;45.10;;;15.10;99.90;;;;;;5067325;28;20812;-49
2022/05/07 08:02:56;;;;;;;65.85;46.72;;;15.10;99.90;;;;;;5051757;28;20112;-48
2022/05/07 08:05:27;;;;;;;67.80;47.03;;;15.00;99.90;;;;;;5051748;28;20393;-51
2022/05/07 08:13:22;;;;;;;61.72;43.47;;;15.00;99.90;;;;;;5071637;28;20097;-60
2022/05/07 08:15:48;;;;;;;66.38;43.08;;;15.00;99.90;;;;;;5071560;28;20469;-60
2022/05/07 08:18:17;;;;;;;63.75;45.63;;;14.90;99.90;;;;;;5071581;28;20033;-48
2022/05/07 08:20:43;;;;;;;64.03;44.20;;;15.10;99.90;;;;;;5071553;28;20036;-49
2022/05/07 08:23:10;;;;;;;68.18;43.38;;;15.10;99.90;;;;;;5071481;28;20052;-48
2022/05/07 08:25:37;;;;;;;64.65;43.08;;;15.10;99.90;;;;;;5071390;28;20280;-48
2022/05/07 08:28:03;;;;;;;68.47;44.67;;;15.10;99.90;;;;;;5071545;28;20059;-50
2022/05/07 08:30:30;;;;;;;63.50;44.65;;;15.20;99.90;;;;;;5071665;28;20048;-52
2022/05/07 08:32:55;;;;;;;67.70;44.85;;;15.20;99.90;;;;;;5071732;28;20488;-52
2022/05/07 08:35:21;;;;;;;67.28;47.22;;;15.30;99.90;;;;;;5071437;28;20076;-53
2022/05/07 08:37:47;;;;;;;65.28;45.60;;;15.40;99.90;;;;;;5071440;28;20044;-50
2022/05/07 08:40:17;;;;;;;65.95;45.53;;;15.40;99.90;;;;;;5070115;28;20366;-48
2022/05/07 08:42:44;;;;;;;63.88;46.10;;;15.40;99.90;;;;;;5071345;28;20041;-49
2022/05/07 08:45:12;;;;;;;66.07;45.95;;;15.50;99.90;;;;;;5071273;28;20028;-49
2022/05/07 08:47:38;;;;;;;66.78;45.08;;;15.60;99.90;;;;;;5071438;28;20048;-49
2022/05/07 08:50:07;;;;;;;63.20;44.92;;;15.50;99.90;;;;;;5071329;28;20044;-50
2022/05/07 08:52:34;;;;;;;67.38;45.67;;;15.60;99.90;;;;;;5074874;28;20036;-49
2022/05/07 08:55:01;;;;;;;66.13;43.40;;;15.60;99.90;;;;;;5075343;28;20044;-47
2022/05/07 08:57:29;;;;;;;66.97;45.40;;;15.70;99.90;;;;;;5075288;28;20046;-53
2022/05/07 08:59:55;;;;;;;62.15;42.72;;;15.60;99.90;;;;;;5073793;28;20443;-47
2022/05/07 09:02:21;;;;;;;66.97;42.63;;;15.70;99.90;;;;;;5055299;28;20037;-49
2022/05/07 09:04:54;;;;;;;62.80;42.83;;;15.70;99.90;;;;;;5055247;28;20040;-50
2022/05/07 09:07:20;;;;;;;62.00;41.38;;;15.70;99.90;;;;;;5061890;28;20097;-49
2022/05/07 09:09:50;;;;;;;52.03;35.90;;;15.70;99.90;;;;;;5065754;28;20048;-48
2022/05/07 09:12:28;;;;;;;54.45;38.78;;;15.80;99.90;;;;;;5075159;28;20082;-50
2022/05/07 09:15:04;;;;;;;52.50;37.83;;;16.00;99.90;;;;;;5064559;28;20051;-49
2022/05/07 09:17:30;;;;;;;52.25;36.10;;;16.00;99.90;;;;;;5054757;28;20148;-48
2022/05/07 09:19:56;;;;;;;57.85;37.70;;;16.10;99.90;;;;;;5054723;28;20410;-50
2022/05/07 09:22:22;;;;;;;50.70;36.42;;;16.00;99.90;;;;;;5054770;28;20041;-49
2022/05/07 09:24:55;;;;;;;55.28;37.97;;;16.20;99.90;;;;;;5054161;28;20061;-51
2022/05/07 09:27:25;;;;;;;46.90;32.75;;;16.20;99.90;;;;;;5054016;28;20052;-52
2022/05/07 09:30:03;;;;;;;43.67;32.13;;;16.20;99.90;;;;;;5054507;28;20048;-49
2022/05/07 09:32:36;;;;;;;46.15;31.83;;;16.20;99.90;;;;;;5055074;28;20043;-48
2022/05/07 09:38:01;;;;;;;44.42;32.60;;;16.30;99.90;;;;;;5055440;28;20052;-48
2022/05/07 09:40:28;;;;;;;50.85;35.05;;;16.40;99.90;;;;;;5055314;28;20412;-49
2022/05/07 09:42:57;;;;;;;49.63;34.75;;;16.50;99.90;;;;;;5055252;28;20440;-49
2022/05/07 09:45:30;;;;;;;54.53;36.83;;;16.50;99.90;;;;;;5054879;28;20033;-48
2022/05/07 09:47:59;;;;;;;53.17;35.90;;;16.60;99.90;;;;;;5055102;28;20037;-49
2022/05/07 09:58:37;;;;;;;53.55;35.33;;;16.60;99.90;;;;;;5065559;28;20106;-62
2022/05/07 10:01:21;;;;;;;54.78;37.25;;;16.50;99.90;;;;;;5064151;28;20040;-62
2022/05/07 10:04:08;;;;;;;53.65;35.88;;;16.60;99.90;;;;;;5064562;28;20072;-62
2022/05/07 10:07:10;;;;;;;62.53;42.45;;;16.50;99.90;;;;;;5065431;28;20218;-50
2022/05/07 10:10:14;;;;;;;66.83;44.03;;;16.40;99.90;;;;;;5041744;28;20049;-53
2022/05/07 10:12:44;;;;;;;66.05;44.78;;;16.60;99.90;;;;;;5047165;28;20284;-62
2022/05/07 10:15:12;;;;;;;72.22;45.72;;;16.60;99.90;;;;;;5054560;28;20515;-62
2022/05/07 10:17:38;;;;;;;67.25;42.70;;;16.70;99.90;;;;;;5054584;28;20041;-61
2022/05/07 10:20:09;;;;;;;67.32;44.05;;;16.50;99.90;;;;;;5054533;28;20033;-62
2022/05/07 10:22:36;;;;;;;64.20;42.50;;;16.60;99.90;;;;;;5054378;28;20083;-53
2022/05/07 10:25:02;;;;;;;65.07;43.00;;;16.70;99.90;;;;;;5054175;28;20064;-50
2022/05/07 10:27:36;;;;;;;63.58;43.15;;;16.60;99.90;;;;;;5054540;28;20047;-49
2022/05/07 10:30:23;;;;;;;67.35;42.17;;;16.70;99.90;;;;;;5054347;28;20059;-52
2022/05/07 10:32:59;;;;;;;66.18;42.95;;;16.60;99.90;;;;;;5053182;28;20132;-49
2022/05/07 10:35:40;;;;;;;66.18;43.00;;;16.50;99.90;;;;;;5054140;28;20450;-62
2022/05/07 10:38:08;;;;;;;61.03;40.97;;;16.70;99.90;;;;;;5054329;28;20120;-62
2022/05/07 10:40:34;;;;;;;59.47;41.08;;;16.70;99.90;;;;;;5054287;28;20047;-62
2022/05/07 10:43:00;;;;;;;56.08;37.42;;;16.70;99.90;;;;;;5054042;28;20123;-62
2022/05/07 10:45:27;;;;;;;54.70;37.30;;;16.70;99.90;;;;;;5054066;28;20481;-62
2022/05/07 10:47:57;;;;;;;45.05;32.50;;;16.80;99.90;;;;;;5053992;28;20511;-50
2022/05/07 10:50:23;;;;;;;47.92;33.28;;;16.60;99.90;;;;;;5036126;28;20120;-53
2022/05/07 10:52:56;;;;;;;52.20;34.50;;;16.80;99.90;;;;;;5053751;28;20048;-53
2022/05/07 10:55:27;;;;;;;49.00;32.78;;;16.90;99.90;;;;;;5053757;28;20385;-53
2022/05/07 10:57:55;;;;;;;50.38;33.65;;;17.10;99.90;;;;;;5053911;28;20037;-49
2022/05/07 11:00:23;;;;;;;46.35;30.00;;;17.40;99.90;;;;;;5059049;28;20037;-51
2022/05/07 11:02:56;;;;;;;40.92;28.60;;;17.50;99.90;;;;;;5073875;28;20037;-51
2022/05/07 11:05:32;;;;;;;39.70;26.73;;;17.50;99.90;;;;;;5073784;28;20086;-51
2022/05/07 11:08:00;;;;;;;35.33;25.45;;;17.30;99.90;;;;;;5073657;28;20399;-53
2022/05/07 11:10:25;;;;;;;29.55;20.10;;;17.40;99.90;;;;;;5073609;28;20112;-51
2022/05/07 11:12:52;;;;;;;21.13;14.52;;;17.30;99.90;;;;;;5073459;28;20111;-50
2022/05/07 11:15:25;;;;;;;17.50;12.00;;;17.30;99.90;;;;;;5073527;28;20033;-62
2022/05/07 11:17:50;;;;;;;18.55;10.43;;;17.40;99.90;;;;;;5073330;28;20079;-62
2022/05/07 11:20:27;;;;;;;15.15;9.95;;;17.10;99.90;;;;;;5073424;28;20068;-62
2022/05/07 11:23:00;;;;;;;15.32;10.43;;;17.10;99.90;;;;;;5072004;28;20392;-62
2022/05/07 11:25:27;;;;;;;15.32;9.57;;;17.00;99.90;;;;;;5073121;28;20051;-62
2022/05/07 11:27:54;;;;;;;14.88;9.80;;;16.90;99.90;;;;;;5072255;28;20060;-62
2022/05/07 11:30:19;;;;;;;16.55;10.75;;;17.00;99.90;;;;;;5073107;28;20045;-62
2022/05/07 11:32:45;;;;;;;16.80;10.50;;;16.80;99.90;;;;;;5073031;28;20396;-62
2022/05/07 11:35:11;;;;;;;15.77;11.40;;;16.80;99.90;;;;;;5073166;28;20040;-62
2022/05/07 11:37:46;;;;;;;16.20;11.38;;;17.10;99.90;;;;;;5073086;28;20400;-53
2022/05/07 11:40:14;;;;;;;16.95;11.77;;;17.00;99.90;;;;;;5073133;28;20046;-62
2022/05/07 11:42:47;;;;;;;16.98;11.23;;;16.90;99.90;;;;;;5072975;28;20045;-62
2022/05/07 11:45:29;;;;;;;17.17;11.73;;;17.10;99.90;;;;;;5073010;28;20107;-62
2022/05/07 11:48:13;;;;;;;16.08;11.27;;;17.30;99.90;;;;;;5066258;28;20079;-51
2022/05/07 11:51:00;;;;;;;16.38;11.25;;;17.20;99.90;;;;;;5061171;28;20583;-51
2022/05/07 11:53:30;;;;;;;17.67;12.40;;;17.50;99.90;;;;;;5061867;28;20047;-62
2022/05/07 11:56:08;;;;;;;15.90;10.93;;;17.30;99.90;;;;;;5061339;28;20064;-62
2022/05/07 11:58:41;;;;;;;18.00;12.27;;;17.50;99.90;;;;;;5060378;28;20032;-62
2022/05/07 12:01:17;;;;;;;16.48;10.98;;;17.20;99.90;;;;;;5065174;28;20739;-62
2022/05/07 12:03:43;;;;;;;17.83;11.10;;;17.20;99.90;;;;;;5072554;28;20147;-62
2022/05/07 12:06:09;;;;;;;17.25;11.20;;;17.10;99.90;;;;;;5072610;28;20524;-62
2022/05/07 12:08:34;;;;;;;17.33;10.95;;;17.10;99.90;;;;;;5072500;28;20037;-62
2022/05/07 12:11:02;;;;;;;16.95;11.82;;;17.30;99.90;;;;;;5072344;28;20100;-51
2022/05/07 12:13:28;;;;;;;16.55;10.57;;;17.20;99.90;;;;;;5072348;28;20079;-50
2022/05/07 12:18:41;;;;;;;17.92;12.20;;;17.20;99.90;;;;;;5072411;28;20125;-62
2022/05/07 12:21:07;;;;;;;23.23;14.50;;;16.90;99.90;;;;;;5072481;28;20476;-62
2022/05/07 12:31:50;;;;;;;26.40;17.52;;;17.20;99.90;;;;;;5060965;28;20059;-50
2022/05/07 12:34:16;;;;;;;27.48;17.48;;;17.00;99.90;;;;;;5061422;28;20111;-51
2022/05/07 12:36:42;;;;;;;25.15;17.15;;;17.00;99.90;;;;;;5062714;28;20143;-51
2022/05/07 12:39:07;;;;;;;20.83;14.70;;;17.00;99.90;;;;;;5060959;28;20049;-53
2022/05/07 12:41:33;;;;;;;21.95;15.05;;;16.90;99.90;;;;;;5061749;28;20036;-52
2022/05/07 12:44:00;;;;;;;22.98;16.08;;;17.20;99.90;;;;;;5062205;28;20044;-52
2022/05/07 12:46:27;;;;;;;22.20;16.52;;;17.40;99.90;;;;;;5060323;28;20397;-50
2022/05/07 12:48:55;;;;;;;20.42;14.48;;;17.20;99.90;;;;;;5062078;28;20123;-49
2022/05/07 12:51:21;;;;;;;19.42;13.13;;;17.10;99.90;;;;;;5062452;28;20037;-53
2022/05/07 12:53:49;;;;;;;17.23;11.75;;;17.30;99.90;;;;;;5060387;28;20040;-50
2022/05/07 12:56:14;;;;;;;18.23;12.10;;;17.50;99.90;;;;;;5060220;28;20032;-52
2022/05/07 12:58:40;;;;;;;15.32;10.05;;;17.60;99.90;;;;;;5062260;28;20043;-51
2022/05/07 13:01:06;;;;;;;15.57;9.95;;;17.50;99.90;;;;;;5059819;28;20036;-50
2022/05/07 13:03:32;;;;;;;14.30;9.82;;;17.50;99.90;;;;;;5061152;28;20033;-54
2022/05/07 13:05:57;;;;;;;12.70;8.38;;;18.00;99.90;;;;;;5061220;28;20507;-50
2022/05/07 13:08:23;;;;;;;13.45;9.07;;;17.80;99.90;;;;;;5062566;28;20059;-53
2022/05/07 13:10:49;;;;;;;13.15;9.10;;;17.80;99.90;;;;;;5060385;28;20036;-52
2022/05/07 13:13:17;;;;;;;14.80;10.57;;;18.10;99.90;;;;;;5061324;28;20037;-53
2022/05/07 13:15:42;;;;;;;14.05;9.25;;;18.20;99.90;;;;;;5060286;28;20064;-51
2022/05/07 13:18:08;;;;;;;13.95;9.45;;;18.20;99.90;;;;;;5062510;28;20598;-54